עמוד ראשי
METAR-TAF:

METAR-TAF

שדות תעופה :

Ilam, איראן

קו רוחב: 33-35-09N, קו אורך: 046-24-20E, גובה: 1334מטר

תצפית מזג אוויר נוכחית

הדו"ח נערך לפני 44דקות, בשעה 19:00 UTC
רוח 4קשר מכיוון צפון
טמפרטורת 24 צלסיוס
לחות 25%
לחץ 1014 hPa
ראות 10 קילומטר או יותר
ללא עננים שבסיסם נמוך מ 5000 רגל או קומולונימבוס

METAR: OICI 131900Z 35004KT CAVOK 24/03 Q1013 A2993

זמן: 00:14 (19:44 UTC)

תחזית

הדו"ח נערך לפני 2 שעות ו 14דקות, בשעה 17:30 UTC
תחזית בתוקף מ 13 ב 18 UTC עד 14 ב 24 UTC
רוח 7קשר מכיוון דרום-מזרח
ראות: 7000מטר
זמנית מ -
14 ב 09 UTC עד 14 ב 17 UTC
רוח 13קשר מכיוון מערב

TAF: OICI 131730Z 1318/1424 13007KT 7000 NSC TEMPO 1409/1417 26013KT

תצפיות ותחזיות מזג אוויר לגבי יותר מ- 4,000 שדות תעופה ברחבי העולם. דוחות METAR ו- TAF.

התחנות הזמינות מסומנות בנקודות צהובות ואדומות על גבי המפה.

העבר את העכבר לנקודה הצבעונית על מנת לראות את שם התחנה.

לאחר מכן, לחץ כדי לראות את תוכן ואת תחזיות מזג האוויר.

כדי לשנות את המפה: לחץ על הכפתורים הירוקים עם הפלוס השחור כדי להתקרב; על הכפתור הירוק עם המקף כדי להתרחק; או בחיצים הירוקים למפות סמוכות.


METAR-TAF: